Time;durP1;ratioP1;P1;durP2;ratioP2;P2;SDS_P1;SDS_P2;PMS_P1;PMS_P2;Temp;Humidity;BMP_temperature;BMP_pressure;BME280_temperature;BME280_humidity;BME280_pressure;Samples;Min_cycle;Max_cycle;Signal;HPM_P1;HPM_P2
2021/10/26 00:01:08;;;;;;;14.87;10.07;;;;;;;;;;5015182;28;20216;-65
2021/10/26 00:03:36;;;;;;;12.07;9.97;;;;;;;;;;5015455;28;20230;-64
2021/10/26 00:06:07;;;;;;;11.37;9.87;;;;;;;;;;5014815;28;20301;-64
2021/10/26 00:08:35;;;;;;;10.77;9.27;;;;;;;;;;5014843;28;20219;-64
2021/10/26 00:11:03;;;;;;;12.73;9.43;;;;;;;;;;5015135;28;20199;-64
2021/10/26 00:13:31;;;;;;;10.73;9.57;;;;;;;;;;5015025;28;20612;-64
2021/10/26 00:16:00;;;;;;;11.43;9.93;;;;;;;;;;5014530;28;20214;-64
2021/10/26 00:18:28;;;;;;;12.33;10.07;;;;;;;;;;5014543;28;20653;-64
2021/10/26 00:20:56;;;;;;;12.07;10.10;;;;;;;;;;5015519;28;20301;-64
2021/10/26 00:23:26;;;;;;;11.63;9.90;;;;;;;;;;5014795;28;20301;-66
2021/10/26 00:25:54;;;;;;;11.83;9.90;;;;;;;;;;5014809;28;20210;-63
2021/10/26 00:28:23;;;;;;;12.47;10.87;;;;;;;;;;5014673;28;20636;-65
2021/10/26 00:30:51;;;;;;;13.53;10.57;;;;;;;;;;5014213;28;20707;-64
2021/10/26 00:33:19;;;;;;;12.33;10.23;;;;;;;;;;5014642;28;20205;-64
2021/10/26 00:35:48;;;;;;;11.90;10.60;;;;;;;;;;5014197;28;20292;-64
2021/10/26 00:38:16;;;;;;;13.93;10.97;;;;;;;;;;5014481;28;20205;-64
2021/10/26 00:40:45;;;;;;;11.83;10.57;;;;;;;;;;5014294;28;20212;-63
2021/10/26 00:43:14;;;;;;;12.43;10.33;;;;;;;;;;5014490;28;20203;-64
2021/10/26 00:45:42;;;;;;;12.23;10.70;;;;;;;;;;5014001;28;20729;-64
2021/10/26 00:48:11;;;;;;;11.27;10.07;;;;;;;;;;5014344;28;20226;-63
2021/10/26 00:50:39;;;;;;;12.83;11.27;;;;;;;;;;5014047;28;20225;-65
2021/10/26 00:53:07;;;;;;;13.50;10.10;;;;;;;;;;5014143;28;20290;-64
2021/10/26 00:55:36;;;;;;;12.73;10.30;;;;;;;;;;5013975;28;20608;-63
2021/10/26 00:58:05;;;;;;;11.90;10.47;;;;;;;;;;5014296;28;20298;-64
2021/10/26 01:00:33;;;;;;;11.70;10.50;;;;;;;;;;4994359;28;20206;-64
2021/10/26 01:03:02;;;;;;;11.40;9.40;;;;;;;;;;4994452;28;20876;-64
2021/10/26 01:05:30;;;;;;;12.87;10.13;;;;;;;;;;4994322;28;20781;-64
2021/10/26 01:07:58;;;;;;;13.20;10.63;;;;;;;;;;4994343;28;20214;-65
2021/10/26 01:10:27;;;;;;;13.97;9.77;;;;;;;;;;4994303;28;20221;-64
2021/10/26 01:12:56;;;;;;;12.27;10.27;;;;;;;;;;4993935;28;20215;-65
2021/10/26 01:15:25;;;;;;;11.50;10.27;;;;;;;;;;4994040;28;20302;-64
2021/10/26 01:17:54;;;;;;;13.80;10.60;;;;;;;;;;4993861;28;20197;-64
2021/10/26 01:20:24;;;;;;;13.23;10.43;;;;;;;;;;4993894;28;20209;-65
2021/10/26 01:22:52;;;;;;;12.23;10.27;;;;;;;;;;4993646;28;20673;-64
2021/10/26 01:25:20;;;;;;;12.70;10.53;;;;;;;;;;4993675;28;20212;-64
2021/10/26 01:27:53;;;;;;;11.17;9.83;;;;;;;;;;4993993;28;20206;-64
2021/10/26 01:30:25;;;;;;;12.93;9.73;;;;;;;;;;4994080;28;20306;-64
2021/10/26 01:32:54;;;;;;;13.10;10.33;;;;;;;;;;4993534;28;20246;-64
2021/10/26 01:35:22;;;;;;;11.40;10.17;;;;;;;;;;4993652;28;20259;-64
2021/10/26 01:37:51;;;;;;;14.50;9.40;;;;;;;;;;4993364;28;20728;-64
2021/10/26 01:40:20;;;;;;;13.87;10.43;;;;;;;;;;4993637;28;20741;-64
2021/10/26 01:42:48;;;;;;;14.17;10.80;;;;;;;;;;4993830;28;20251;-63
2021/10/26 01:45:16;;;;;;;13.40;10.13;;;;;;;;;;4993688;28;20218;-64
2021/10/26 01:47:45;;;;;;;14.30;10.40;;;;;;;;;;4993918;28;20204;-63
2021/10/26 01:50:14;;;;;;;12.43;10.57;;;;;;;;;;4993518;28;20230;-64
2021/10/26 01:52:42;;;;;;;12.50;10.47;;;;;;;;;;4993486;28;20225;-64
2021/10/26 01:55:12;;;;;;;14.83;11.63;;;;;;;;;;4993680;28;20211;-64
2021/10/26 01:57:40;;;;;;;14.40;11.50;;;;;;;;;;4993465;28;20754;-63
2021/10/26 02:00:09;;;;;;;14.80;11.80;;;;;;;;;;5009741;28;20222;-65
2021/10/26 02:02:37;;;;;;;14.20;11.60;;;;;;;;;;5013057;28;20289;-64
2021/10/26 02:05:07;;;;;;;14.37;11.90;;;;;;;;;;5013055;28;20236;-63
2021/10/26 02:07:35;;;;;;;13.00;11.37;;;;;;;;;;5012553;28;20670;-63
2021/10/26 02:10:03;;;;;;;14.50;12.30;;;;;;;;;;5012861;28;20225;-64
2021/10/26 02:12:33;;;;;;;13.80;11.93;;;;;;;;;;5012725;28;20886;-63
2021/10/26 02:15:01;;;;;;;18.70;14.03;;;;;;;;;;5012437;28;20298;-63
2021/10/26 02:17:29;;;;;;;19.80;15.17;;;;;;;;;;5012878;28;20290;-64
2021/10/26 02:19:57;;;;;;;25.70;15.30;;;;;;;;;;5012548;28;20784;-64
2021/10/26 02:22:25;;;;;;;19.53;14.80;;;;;;;;;;5012534;28;20744;-64
2021/10/26 02:24:54;;;;;;;18.53;13.30;;;;;;;;;;5012581;28;20638;-63
2021/10/26 02:27:22;;;;;;;15.97;13.17;;;;;;;;;;5012937;28;20293;-63
2021/10/26 02:29:52;;;;;;;15.20;12.40;;;;;;;;;;5012387;28;20434;-64
2021/10/26 02:32:20;;;;;;;16.50;12.93;;;;;;;;;;5012759;28;20669;-64
2021/10/26 02:34:48;;;;;;;15.93;12.67;;;;;;;;;;5012656;28;20325;-65
2021/10/26 02:37:16;;;;;;;15.40;12.23;;;;;;;;;;5012648;28;20541;-64
2021/10/26 02:39:44;;;;;;;15.53;12.30;;;;;;;;;;5012701;28;20293;-64
2021/10/26 02:42:12;;;;;;;16.07;12.47;;;;;;;;;;5012658;28;20238;-64
2021/10/26 02:44:41;;;;;;;14.40;12.33;;;;;;;;;;5012574;28;20206;-65
2021/10/26 02:47:10;;;;;;;15.07;11.73;;;;;;;;;;5016577;28;20286;-64
2021/10/26 02:49:38;;;;;;;15.97;12.63;;;;;;;;;;5016437;28;20634;-65
2021/10/26 02:52:07;;;;;;;12.70;11.27;;;;;;;;;;5016074;28;20207;-63
2021/10/26 02:54:35;;;;;;;14.60;11.63;;;;;;;;;;5016158;28;20209;-64
2021/10/26 02:57:03;;;;;;;13.50;12.10;;;;;;;;;;5016119;28;20208;-64
2021/10/26 02:59:31;;;;;;;15.33;11.30;;;;;;;;;;5016203;28;20301;-64
2021/10/26 03:02:01;;;;;;;12.87;11.47;;;;;;;;;;5016117;28;20662;-64
2021/10/26 03:04:30;;;;;;;15.83;12.13;;;;;;;;;;5016344;28;20290;-64
2021/10/26 03:06:58;;;;;;;14.43;11.90;;;;;;;;;;5015975;28;20212;-63
2021/10/26 03:09:27;;;;;;;15.27;11.67;;;;;;;;;;5016344;28;20205;-63
2021/10/26 03:11:55;;;;;;;15.63;10.80;;;;;;;;;;5015932;28;20257;-64
2021/10/26 03:14:23;;;;;;;15.33;11.43;;;;;;;;;;5016125;28;20265;-63
2021/10/26 03:16:51;;;;;;;14.30;11.63;;;;;;;;;;5015862;28;20301;-63
2021/10/26 03:19:19;;;;;;;12.73;11.37;;;;;;;;;;5015931;28;20208;-63
2021/10/26 03:21:49;;;;;;;15.97;11.13;;;;;;;;;;5016025;28;20245;-64
2021/10/26 03:24:17;;;;;;;13.10;11.00;;;;;;;;;;5016079;28;20202;-64
2021/10/26 03:26:45;;;;;;;12.00;10.70;;;;;;;;;;5015995;28;20230;-64
2021/10/26 03:29:14;;;;;;;12.80;10.47;;;;;;;;;;5015833;28;20225;-64
2021/10/26 03:31:42;;;;;;;12.60;10.77;;;;;;;;;;5015746;28;20221;-64
2021/10/26 03:34:10;;;;;;;11.70;10.03;;;;;;;;;;5015602;28;20230;-64
2021/10/26 03:36:38;;;;;;;14.67;10.37;;;;;;;;;;5015742;28;20230;-63
2021/10/26 03:39:08;;;;;;;14.50;11.07;;;;;;;;;;5015997;28;20293;-63
2021/10/26 03:41:36;;;;;;;11.73;9.87;;;;;;;;;;5015879;28;20234;-63
2021/10/26 03:44:04;;;;;;;11.53;10.10;;;;;;;;;;5015349;28;20203;-63
2021/10/26 03:46:34;;;;;;;12.87;10.57;;;;;;;;;;5015587;28;20199;-64
2021/10/26 03:49:02;;;;;;;12.23;10.53;;;;;;;;;;5015398;28;20269;-63
2021/10/26 03:51:30;;;;;;;11.90;9.73;;;;;;;;;;5015144;28;20265;-64
2021/10/26 03:53:58;;;;;;;10.67;9.57;;;;;;;;;;5015044;28;20238;-64
2021/10/26 03:56:28;;;;;;;11.40;9.60;;;;;;;;;;5015155;28;20213;-65
2021/10/26 03:58:57;;;;;;;13.60;11.37;;;;;;;;;;5015206;28;20290;-64
2021/10/26 04:01:26;;;;;;;12.67;10.33;;;;;;;;;;5015306;28;20216;-64
2021/10/26 04:03:54;;;;;;;15.40;11.77;;;;;;;;;;5015255;28;20218;-64
2021/10/26 04:06:24;;;;;;;16.43;12.83;;;;;;;;;;5014905;28;20298;-64
2021/10/26 04:08:56;;;;;;;16.47;13.17;;;;;;;;;;5015131;28;20647;-64
2021/10/26 04:11:25;;;;;;;16.47;12.70;;;;;;;;;;5015003;28;20301;-64
2021/10/26 04:13:54;;;;;;;13.90;11.77;;;;;;;;;;5014951;28;20232;-64
2021/10/26 04:16:23;;;;;;;13.20;11.73;;;;;;;;;;5014869;28;20206;-63
2021/10/26 04:18:52;;;;;;;12.57;10.43;;;;;;;;;;5014993;28;20203;-65
2021/10/26 04:21:20;;;;;;;13.10;10.87;;;;;;;;;;5014731;28;20298;-63
2021/10/26 04:23:50;;;;;;;14.70;10.53;;;;;;;;;;5014888;28;20290;-63
2021/10/26 04:26:19;;;;;;;13.20;10.50;;;;;;;;;;5014735;28;20209;-64
2021/10/26 04:28:47;;;;;;;13.47;10.07;;;;;;;;;;5014679;28;20209;-63
2021/10/26 04:31:18;;;;;;;11.40;9.13;;;;;;;;;;5014432;28;20219;-64
2021/10/26 04:33:46;;;;;;;13.37;10.10;;;;;;;;;;5014112;28;20237;-64
2021/10/26 04:36:14;;;;;;;12.83;9.90;;;;;;;;;;5014398;28;20194;-64
2021/10/26 04:38:43;;;;;;;10.33;9.07;;;;;;;;;;5014414;28;20203;-64
2021/10/26 04:41:12;;;;;;;16.20;11.87;;;;;;;;;;5014010;28;20642;-63
2021/10/26 04:43:40;;;;;;;13.67;10.40;;;;;;;;;;5014402;28;20202;-64
2021/10/26 04:46:09;;;;;;;11.53;10.33;;;;;;;;;;5013563;28;20209;-63
2021/10/26 04:48:39;;;;;;;14.27;11.23;;;;;;;;;;5014493;28;20205;-64
2021/10/26 04:51:07;;;;;;;12.90;10.07;;;;;;;;;;5014010;28;20698;-65
2021/10/26 04:53:35;;;;;;;12.63;9.70;;;;;;;;;;5013467;28;20206;-64
2021/10/26 04:56:05;;;;;;;11.93;10.10;;;;;;;;;;5014038;28;20202;-63
2021/10/26 04:58:33;;;;;;;12.33;10.70;;;;;;;;;;5014322;28;20220;-64
2021/10/26 05:01:01;;;;;;;11.07;9.17;;;;;;;;;;5013930;28;20305;-63
2021/10/26 05:03:31;;;;;;;12.13;10.30;;;;;;;;;;5014080;28;20234;-64
2021/10/26 05:06:02;;;;;;;10.57;9.40;;;;;;;;;;5014296;28;20203;-62
2021/10/26 05:08:31;;;;;;;13.23;10.83;;;;;;;;;;5013623;28;20217;-63
2021/10/26 05:11:00;;;;;;;13.27;10.50;;;;;;;;;;5014187;28;20275;-64
2021/10/26 05:13:30;;;;;;;12.73;10.50;;;;;;;;;;5014424;28;20199;-64
2021/10/26 05:15:59;;;;;;;11.37;9.73;;;;;;;;;;5013727;28;20290;-64
2021/10/26 05:18:29;;;;;;;12.67;10.47;;;;;;;;;;5013551;28;20207;-64
2021/10/26 05:21:01;;;;;;;11.77;9.80;;;;;;;;;;5013598;28;20193;-64
2021/10/26 05:23:30;;;;;;;12.23;10.40;;;;;;;;;;5013654;28;20189;-63
2021/10/26 05:25:59;;;;;;;11.37;10.10;;;;;;;;;;5013716;28;20620;-64
2021/10/26 05:28:27;;;;;;;12.40;10.23;;;;;;;;;;5013997;28;20211;-63
2021/10/26 05:30:55;;;;;;;13.37;10.70;;;;;;;;;;5013524;28;20722;-62
2021/10/26 05:33:23;;;;;;;11.80;10.17;;;;;;;;;;5013964;28;20252;-63
2021/10/26 05:35:51;;;;;;;14.57;10.77;;;;;;;;;;5013639;28;20325;-64
2021/10/26 05:38:20;;;;;;;11.50;10.03;;;;;;;;;;5013538;28;20294;-64
2021/10/26 05:40:49;;;;;;;12.97;10.63;;;;;;;;;;5013479;28;20202;-63
2021/10/26 05:43:18;;;;;;;15.47;10.47;;;;;;;;;;5013423;28;20203;-65
2021/10/26 05:45:46;;;;;;;13.17;10.50;;;;;;;;;;5013395;28;20204;-64
2021/10/26 05:48:16;;;;;;;14.23;11.40;;;;;;;;;;5013723;28;20238;-64
2021/10/26 05:50:44;;;;;;;14.20;11.60;;;;;;;;;;5013291;28;20270;-63
2021/10/26 05:53:13;;;;;;;12.23;10.90;;;;;;;;;;5013139;28;20566;-64
2021/10/26 05:55:42;;;;;;;13.50;11.30;;;;;;;;;;5013664;28;20333;-64
2021/10/26 05:58:13;;;;;;;17.13;11.97;;;;;;;;;;5012905;28;20847;-64
2021/10/26 06:00:42;;;;;;;17.00;11.93;;;;;;;;;;5013111;28;20233;-64
2021/10/26 06:03:10;;;;;;;18.47;12.67;;;;;;;;;;5013148;28;20198;-63
2021/10/26 06:05:38;;;;;;;16.77;12.57;;;;;;;;;;5013249;28;20208;-64
2021/10/26 06:08:07;;;;;;;13.93;11.50;;;;;;;;;;5013073;28;20206;-64
2021/10/26 06:10:40;;;;;;;14.83;12.10;;;;;;;;;;5012962;28;20550;-64
2021/10/26 06:13:10;;;;;;;15.57;12.10;;;;;;;;;;5012690;28;20209;-64
2021/10/26 06:15:40;;;;;;;21.23;13.67;;;;;;;;;;5013103;28;20211;-65
2021/10/26 06:18:13;;;;;;;13.50;12.10;;;;;;;;;;5012993;28;20191;-64
2021/10/26 06:20:41;;;;;;;15.73;13.17;;;;;;;;;;5019105;28;20202;-65
2021/10/26 06:23:10;;;;;;;20.47;12.37;;;;;;;;;;5019391;28;20209;-64
2021/10/26 06:25:38;;;;;;;17.03;12.97;;;;;;;;;;5018993;28;20789;-64
2021/10/26 06:28:06;;;;;;;14.90;11.47;;;;;;;;;;5019429;28;20303;-64
2021/10/26 06:30:34;;;;;;;11.63;10.43;;;;;;;;;;5019033;28;20642;-63
2021/10/26 06:33:04;;;;;;;14.13;11.53;;;;;;;;;;5019317;28;20225;-64
2021/10/26 06:35:32;;;;;;;13.20;11.50;;;;;;;;;;5019193;28;20236;-64
2021/10/26 06:38:00;;;;;;;14.83;10.57;;;;;;;;;;5018983;28;20208;-64
2021/10/26 06:40:28;;;;;;;16.23;11.53;;;;;;;;;;5019183;28;20297;-64
2021/10/26 06:42:57;;;;;;;16.80;12.00;;;;;;;;;;5019492;28;20238;-63
2021/10/26 06:45:26;;;;;;;17.13;12.33;;;;;;;;;;5019257;28;20253;-63
2021/10/26 06:47:54;;;;;;;15.63;11.97;;;;;;;;;;5019284;28;20257;-64
2021/10/26 06:50:23;;;;;;;13.60;12.20;;;;;;;;;;5019079;28;20654;-64
2021/10/26 06:52:52;;;;;;;15.20;11.60;;;;;;;;;;5019074;28;20352;-64
2021/10/26 06:55:20;;;;;;;14.70;11.83;;;;;;;;;;5018875;28;20752;-64
2021/10/26 06:57:49;;;;;;;13.63;11.07;;;;;;;;;;5019212;28;20676;-65
2021/10/26 07:00:19;;;;;;;17.13;11.73;;;;;;;;;;5019055;28;20203;-64
2021/10/26 07:02:47;;;;;;;17.33;11.53;;;;;;;;;;5018847;28;20673;-64
2021/10/26 07:05:16;;;;;;;16.13;11.63;;;;;;;;;;5019174;28;20580;-66
2021/10/26 07:07:46;;;;;;;12.17;10.87;;;;;;;;;;5018651;28;20202;-64
2021/10/26 07:10:14;;;;;;;16.20;12.07;;;;;;;;;;5019011;28;20198;-64
2021/10/26 07:12:42;;;;;;;21.07;12.50;;;;;;;;;;5018928;28;20214;-64
2021/10/26 07:15:12;;;;;;;16.87;12.20;;;;;;;;;;5018633;28;20272;-64
2021/10/26 07:17:41;;;;;;;16.00;11.97;;;;;;;;;;5018909;28;20206;-64
2021/10/26 07:20:10;;;;;;;15.77;12.27;;;;;;;;;;5018663;28;20678;-64
2021/10/26 07:22:39;;;;;;;13.63;11.70;;;;;;;;;;5018781;28;20234;-63
2021/10/26 07:25:10;;;;;;;16.60;12.00;;;;;;;;;;5018815;28;20198;-64
2021/10/26 07:27:39;;;;;;;15.53;12.10;;;;;;;;;;5018669;28;20630;-64
2021/10/26 07:30:08;;;;;;;11.83;10.63;;;;;;;;;;5018229;28;20203;-64
2021/10/26 07:32:36;;;;;;;15.87;12.10;;;;;;;;;;5015272;28;20318;-65
2021/10/26 07:35:05;;;;;;;26.27;17.40;;;;;;;;;;5015524;28;20230;-64
2021/10/26 07:37:36;;;;;;;16.13;12.50;;;;;;;;;;5015428;28;20198;-64
2021/10/26 07:40:05;;;;;;;14.77;11.17;;;;;;;;;;5015541;28;20588;-63
2021/10/26 07:42:35;;;;;;;17.77;11.47;;;;;;;;;;5015480;28;20242;-65
2021/10/26 07:45:04;;;;;;;15.27;11.13;;;;;;;;;;5015518;28;20226;-64
2021/10/26 07:47:34;;;;;;;18.20;12.17;;;;;;;;;;5015217;28;20221;-64
2021/10/26 07:50:02;;;;;;;15.67;12.23;;;;;;;;;;5015528;28;20203;-64
2021/10/26 07:52:30;;;;;;;16.00;11.77;;;;;;;;;;5014909;28;20305;-64
2021/10/26 07:54:58;;;;;;;15.97;12.27;;;;;;;;;;5015042;28;20809;-63
2021/10/26 07:57:27;;;;;;;14.53;11.50;;;;;;;;;;5015022;28;20941;-64
2021/10/26 07:59:57;;;;;;;13.97;10.67;;;;;;;;;;5015191;28;20237;-64
2021/10/26 08:02:26;;;;;;;16.47;11.77;;;;;;;;;;5015114;28;20207;-63
2021/10/26 08:04:55;;;;;;;14.43;11.17;;;;;;;;;;5015261;28;20233;-64
2021/10/26 08:07:24;;;;;;;19.00;11.63;;;;;;;;;;5015015;28;20293;-64
2021/10/26 08:09:53;;;;;;;16.07;11.67;;;;;;;;;;5015181;28;20209;-64
2021/10/26 08:12:22;;;;;;;16.70;12.03;;;;;;;;;;5014849;28;20569;-64
2021/10/26 08:14:51;;;;;;;16.13;11.97;;;;;;;;;;5015001;28;20222;-63
2021/10/26 08:17:21;;;;;;;18.83;11.30;;;;;;;;;;5015046;28;20298;-64
2021/10/26 08:19:50;;;;;;;14.30;11.70;;;;;;;;;;5015030;28;20293;-64
2021/10/26 08:22:20;;;;;;;14.57;11.80;;;;;;;;;;5014576;28;20554;-66
2021/10/26 08:24:50;;;;;;;13.63;11.07;;;;;;;;;;5014504;28;20583;-64
2021/10/26 08:27:20;;;;;;;14.53;11.40;;;;;;;;;;5014872;28;20244;-65
2021/10/26 08:29:53;;;;;;;14.20;11.87;;;;;;;;;;5014430;28;20298;-64
2021/10/26 08:32:44;;;;;;;14.60;11.03;;;;;;;;;;5014776;28;20633;-65
2021/10/26 08:35:25;;;;;;;13.63;10.80;;;;;;;;;;5014486;28;20281;-63
2021/10/26 08:37:55;;;;;;;13.47;10.73;;;;;;;;;;5014607;28;20277;-65
2021/10/26 08:40:25;;;;;;;15.53;11.33;;;;;;;;;;5014377;28;20207;-64
2021/10/26 08:42:54;;;;;;;14.03;11.03;;;;;;;;;;5013086;28;20570;-64
2021/10/26 08:45:23;;;;;;;15.63;11.23;;;;;;;;;;5014353;28;20261;-65
2021/10/26 08:47:53;;;;;;;11.73;10.50;;;;;;;;;;5014378;28;20210;-66
2021/10/26 08:50:21;;;;;;;15.53;11.00;;;;;;;;;;5014269;28;20205;-64
2021/10/26 08:52:50;;;;;;;10.93;9.63;;;;;;;;;;5014001;28;20301;-64
2021/10/26 08:55:18;;;;;;;14.45;10.60;;;;;;;;;;5014201;28;20298;-63
2021/10/26 08:57:47;;;;;;;14.38;10.43;;;;;;;;;;5014330;28;20206;-67
2021/10/26 09:00:18;;;;;;;15.70;10.67;;;;;;;;;;5014057;28;20207;-67
2021/10/26 09:02:47;;;;;;;13.23;9.87;;;;;;;;;;5014251;28;20199;-64
2021/10/26 09:05:18;;;;;;;13.23;9.60;;;;;;;;;;5014234;28;20195;-65
2021/10/26 09:08:02;;;;;;;11.98;9.80;;;;;;;;;;5013917;28;20191;-66
2021/10/26 09:10:32;;;;;;;9.68;8.50;;;;;;;;;;5014011;28;20295;-65
2021/10/26 09:18:40;;;;;;;9.63;8.63;;;;;;;;;;5013878;28;20269;-65
2021/10/26 09:21:24;;;;;;;10.43;8.77;;;;;;;;;;5013537;28;20765;-64
2021/10/26 09:23:55;;;;;;;9.80;8.47;;;;;;;;;;5013984;28;20266;-64
2021/10/26 09:26:24;;;;;;;12.27;9.53;;;;;;;;;;5013460;28;20547;-64
2021/10/26 09:28:53;;;;;;;10.45;8.38;;;;;;;;;;5013703;28;20214;-67
2021/10/26 09:31:25;;;;;;;10.73;8.77;;;;;;;;;;5013560;28;20205;-66
2021/10/26 09:34:01;;;;;;;11.73;9.43;;;;;;;;;;5013321;28;20211;-64
2021/10/26 09:36:32;;;;;;;9.30;8.30;;;;;;;;;;5013427;28;20186;-64
2021/10/26 09:39:14;;;;;;;9.50;8.50;;;;;;;;;;5013603;28;20195;-64
2021/10/26 09:42:01;;;;;;;10.75;8.60;;;;;;;;;;5013678;28;20199;-64
2021/10/26 09:44:30;;;;;;;9.63;8.43;;;;;;;;;;5013376;28;20183;-64
2021/10/26 09:47:00;;;;;;;10.97;9.47;;;;;;;;;;5013271;28;20207;-64
2021/10/26 09:49:29;;;;;;;13.63;8.48;;;;;;;;;;5013648;28;20229;-66
2021/10/26 09:52:14;;;;;;;10.00;8.13;;;;;;;;;;5013007;28;20624;-64
2021/10/26 09:54:43;;;;;;;12.97;8.97;;;;;;;;;;5012572;28;20207;-66
2021/10/26 09:57:13;;;;;;;11.00;8.20;;;;;;;;;;5013412;28;20198;-64
2021/10/26 09:59:49;;;;;;;10.98;8.25;;;;;;;;;;5013309;28;20218;-65
2021/10/26 10:02:19;;;;;;;11.23;8.43;;;;;;;;;;5013173;28;20210;-64
2021/10/26 10:05:04;;;;;;;9.43;8.00;;;;;;;;;;5013113;28;20697;-68
2021/10/26 10:07:34;;;;;;;9.00;8.00;;;;;;;;;;5013129;28;20209;-64
2021/10/26 10:10:04;;;;;;;9.05;8.10;;;;;;;;;;5012831;28;20611;-64
2021/10/26 10:12:33;;;;;;;10.02;8.32;;;;;;;;;;5012780;28;20631;-64
2021/10/26 10:15:05;;;;;;;8.23;7.30;;;;;;;;;;5012605;28;20594;-65
2021/10/26 10:17:35;;;;;;;10.63;7.70;;;;;;;;;;5012988;28;20187;-64
2021/10/26 10:20:05;;;;;;;10.07;7.63;;;;;;;;;;5013053;28;20202;-65
2021/10/26 10:22:35;;;;;;;9.68;7.97;;;;;;;;;;5013163;28;20212;-64
2021/10/26 10:25:04;;;;;;;8.60;7.43;;;;;;;;;;5012889;28;20209;-65
2021/10/26 10:27:33;;;;;;;9.40;8.18;;;;;;;;;;5012857;28;20294;-64
2021/10/26 10:30:01;;;;;;;8.88;7.55;;;;;;;;;;5012685;28;20205;-65
2021/10/26 10:32:30;;;;;;;9.95;7.47;;;;;;;;;;5012829;28;20209;-64
2021/10/26 10:34:59;;;;;;;7.78;6.97;;;;;;;;;;5012452;28;20245;-64
2021/10/26 10:37:28;;;;;;;8.63;7.32;;;;;;;;;;5012783;28;20218;-64
2021/10/26 10:39:58;;;;;;;8.15;6.78;;;;;;;;;;5012737;28;20550;-65
2021/10/26 10:42:30;;;;;;;8.48;6.25;;;;;;;;;;5013038;28;20206;-65
2021/10/26 10:45:00;;;;;;;8.07;6.50;;;;;;;;;;5012740;28;20414;-65
2021/10/26 10:47:32;;;;;;;8.35;7.03;;;;;;;;;;5012816;28;20391;-65
2021/10/26 10:50:01;;;;;;;9.20;7.35;;;;;;;;;;5012625;28;20209;-65
2021/10/26 10:52:31;;;;;;;6.97;6.25;;;;;;;;;;5012137;28;20206;-64
2021/10/26 10:55:01;;;;;;;10.07;6.70;;;;;;;;;;5012507;28;20716;-64
2021/10/26 10:57:32;;;;;;;10.90;6.70;;;;;;;;;;5012572;28;20191;-64
2021/10/26 11:00:01;;;;;;;8.52;6.70;;;;;;;;;;5012368;28;20655;-64
2021/10/26 11:02:34;;;;;;;7.65;6.88;;;;;;;;;;5012223;28;20653;-64
2021/10/26 11:05:03;;;;;;;8.70;6.57;;;;;;;;;;5012227;28;20274;-64
2021/10/26 11:07:54;;;;;;;11.60;7.28;;;;;;;;;;5015396;28;20225;-65
2021/10/26 11:10:23;;;;;;;7.38;6.60;;;;;;;;;;5016323;28;20187;-64
2021/10/26 11:13:11;;;;;;;7.07;5.82;;;;;;;;;;5016481;28;20207;-64
2021/10/26 11:15:44;;;;;;;7.70;5.68;;;;;;;;;;5015844;28;20663;-65
2021/10/26 11:18:12;;;;;;;8.63;5.30;;;;;;;;;;5015980;28;20612;-64
2021/10/26 11:20:41;;;;;;;5.80;5.20;;;;;;;;;;5015899;28;20682;-64
2021/10/26 11:23:14;;;;;;;7.95;5.63;;;;;;;;;;5017762;28;20577;-65
2021/10/26 11:25:46;;;;;;;5.40;4.95;;;;;;;;;;5017797;28;20183;-64
2021/10/26 11:28:33;;;;;;;5.82;5.18;;;;;;;;;;5017992;28;20191;-64
2021/10/26 11:31:04;;;;;;;6.18;5.57;;;;;;;;;;5016095;28;20573;-64
2021/10/26 11:33:34;;;;;;;6.93;5.60;;;;;;;;;;5016411;28;20709;-64
2021/10/26 11:36:05;;;;;;;7.43;5.32;;;;;;;;;;5015916;28;20223;-64
2021/10/26 11:38:34;;;;;;;7.25;6.55;;;;;;;;;;5015417;28;20183;-65
2021/10/26 11:41:04;;;;;;;7.38;6.15;;;;;;;;;;5015668;28;20253;-64
2021/10/26 11:43:39;;;;;;;7.45;5.90;;;;;;;;;;5015568;28;20638;-64
2021/10/26 11:46:07;;;;;;;6.10;5.50;;;;;;;;;;5015318;28;20274;-64
2021/10/26 11:48:39;;;;;;;7.82;5.68;;;;;;;;;;5015520;28;20206;-65
2021/10/26 11:51:26;;;;;;;7.70;5.63;;;;;;;;;;5015754;28;20193;-63
2021/10/26 11:53:55;;;;;;;7.05;5.13;;;;;;;;;;5015758;28;20189;-64
2021/10/26 11:56:26;;;;;;;5.90;4.85;;;;;;;;;;5015314;28;20224;-64
2021/10/26 11:58:56;;;;;;;4.40;3.92;;;;;;;;;;5015544;28;20206;-64
2021/10/26 12:01:33;;;;;;;4.82;4.15;;;;;;;;;;5015600;28;20797;-66
2021/10/26 12:04:02;;;;;;;5.22;3.92;;;;;;;;;;5015751;28;20530;-64
2021/10/26 12:06:31;;;;;;;5.90;4.20;;;;;;;;;;5015797;28;20199;-63
2021/10/26 12:09:00;;;;;;;4.82;4.43;;;;;;;;;;5015781;28;20361;-62
2021/10/26 12:11:31;;;;;;;5.22;4.10;;;;;;;;;;5015253;28;20238;-62
2021/10/26 12:14:16;;;;;;;5.05;3.97;;;;;;;;;;5015319;28;20283;-63
2021/10/26 12:16:59;;;;;;;4.57;4.10;;;;;;;;;;5014179;28;20314;-64
2021/10/26 12:19:28;;;;;;;4.80;4.25;;;;;;;;;;5014641;28;20743;-63
2021/10/26 12:21:57;;;;;;;5.20;4.40;;;;;;;;;;5015186;28;20209;-62
2021/10/26 12:24:25;;;;;;;6.18;5.10;;;;;;;;;;5014752;28;20205;-62
2021/10/26 12:27:03;;;;;;;7.18;4.72;;;;;;;;;;5014508;28;20662;-63
2021/10/26 12:29:32;;;;;;;5.15;4.47;;;;;;;;;;5014855;28;20537;-63
2021/10/26 12:32:00;;;;;;;5.53;4.80;;;;;;;;;;5014726;28;20297;-62
2021/10/26 12:34:29;;;;;;;7.88;5.07;;;;;;;;;;5014288;28;20710;-62
2021/10/26 12:37:12;;;;;;;4.82;4.43;;;;;;;;;;5014471;28;20607;-62
2021/10/26 12:39:40;;;;;;;5.50;4.57;;;;;;;;;;5014108;28;20589;-63
2021/10/26 12:42:27;;;;;;;5.63;4.70;;;;;;;;;;5014685;28;20199;-62
2021/10/26 12:44:55;;;;;;;5.05;4.35;;;;;;;;;;5014336;28;20274;-62
2021/10/26 12:47:24;;;;;;;6.75;4.70;;;;;;;;;;5014266;28;20209;-63
2021/10/26 12:49:52;;;;;;;5.05;4.32;;;;;;;;;;5014202;28;20407;-62
2021/10/26 12:52:22;;;;;;;5.22;4.55;;;;;;;;;;5014389;28;20202;-62
2021/10/26 12:54:50;;;;;;;5.07;4.57;;;;;;;;;;5014239;28;20210;-62
2021/10/26 12:57:33;;;;;;;5.05;4.57;;;;;;;;;;5014136;28;20227;-63
2021/10/26 13:00:16;;;;;;;4.95;3.92;;;;;;;;;;5014153;28;20204;-62
2021/10/26 13:02:46;;;;;;;4.40;4.00;;;;;;;;;;5014097;28;20205;-63
2021/10/26 13:05:14;;;;;;;6.15;4.28;;;;;;;;;;5014063;28;20199;-64
2021/10/26 13:07:42;;;;;;;5.88;4.80;;;;;;;;;;5013971;28;20202;-63
2021/10/26 13:10:12;;;;;;;5.43;4.75;;;;;;;;;;5014096;28;20221;-61
2021/10/26 13:12:41;;;;;;;4.75;4.05;;;;;;;;;;5013708;28;20573;-62
2021/10/26 13:15:11;;;;;;;6.03;4.70;;;;;;;;;;5013638;28;20721;-62
2021/10/26 13:17:40;;;;;;;4.32;3.65;;;;;;;;;;5013773;28;20298;-62
2021/10/26 13:20:24;;;;;;;6.57;3.85;;;;;;;;;;5013944;28;20290;-63
2021/10/26 13:22:59;;;;;;;4.15;3.22;;;;;;;;;;5013746;28;20183;-62
2021/10/26 13:25:28;;;;;;;3.55;3.25;;;;;;;;;;5013917;28;20281;-61
2021/10/26 13:27:57;;;;;;;4.15;3.47;;;;;;;;;;5013384;28;20682;-62
2021/10/26 13:30:25;;;;;;;6.15;3.55;;;;;;;;;;5013089;28;20293;-62
2021/10/26 13:32:54;;;;;;;4.25;3.60;;;;;;;;;;5013363;28;20322;-63
2021/10/26 13:35:23;;;;;;;5.20;4.07;;;;;;;;;;5013153;28;20325;-62
2021/10/26 13:37:52;;;;;;;4.05;3.67;;;;;;;;;;5013609;28;20217;-62
2021/10/26 13:40:20;;;;;;;5.45;4.53;;;;;;;;;;5013610;28;20544;-63
2021/10/26 13:42:48;;;;;;;5.40;4.90;;;;;;;;;;5013477;28;20290;-62
2021/10/26 13:45:17;;;;;;;6.10;4.70;;;;;;;;;;5013503;28;20297;-63
2021/10/26 13:47:46;;;;;;;5.05;4.55;;;;;;;;;;5013255;28;20230;-63
2021/10/26 13:50:15;;;;;;;4.70;4.30;;;;;;;;;;5013398;28;20257;-63
2021/10/26 13:52:44;;;;;;;6.25;4.63;;;;;;;;;;5013062;28;20682;-64
2021/10/26 13:55:13;;;;;;;6.15;4.75;;;;;;;;;;5013421;28;20209;-63
2021/10/26 13:57:42;;;;;;;5.28;4.07;;;;;;;;;;5012959;28;20321;-63
2021/10/26 14:00:13;;;;;;;4.90;4.03;;;;;;;;;;5013259;28;20202;-62
2021/10/26 14:02:42;;;;;;;4.22;3.63;;;;;;;;;;5013255;28;20191;-66
2021/10/26 14:05:11;;;;;;;5.22;3.72;;;;;;;;;;5013285;28;20205;-63
2021/10/26 14:07:40;;;;;;;5.30;3.65;;;;;;;;;;5012945;28;20253;-62
2021/10/26 14:10:12;;;;;;;6.93;3.83;;;;;;;;;;5013134;28;20202;-64
2021/10/26 14:12:40;;;;;;;6.07;4.22;;;;;;;;;;5013005;28;20183;-63
2021/10/26 14:15:09;;;;;;;5.63;4.30;;;;;;;;;;5012996;28;20405;-62
2021/10/26 14:17:37;;;;;;;5.25;3.88;;;;;;;;;;5012997;28;20218;-61
2021/10/26 14:20:10;;;;;;;7.47;4.57;;;;;;;;;;5012973;28;20293;-63
2021/10/26 14:22:38;;;;;;;5.72;3.70;;;;;;;;;;5012555;28;20213;-63
2021/10/26 14:25:07;;;;;;;5.53;3.90;;;;;;;;;;5012863;28;20205;-63
2021/10/26 14:27:37;;;;;;;4.25;3.50;;;;;;;;;;5012650;28;20289;-62
2021/10/26 14:30:05;;;;;;;5.27;3.80;;;;;;;;;;5011938;28;20207;-63
2021/10/26 14:32:34;;;;;;;7.40;4.10;;;;;;;;;;5012522;28;20238;-64
2021/10/26 14:35:07;;;;;;;5.38;4.00;;;;;;;;;;5012109;28;20229;-65
2021/10/26 14:37:45;;;;;;;5.65;4.38;;;;;;;;;;5012536;28;20210;-63
2021/10/26 14:54:17;;;;;;;4.20;3.58;;;;;;;;;;5014429;28;20553;-62
2021/10/26 14:56:45;;;;;;;5.38;3.70;;;;;;;;;;5016122;28;20698;-62
2021/10/26 14:59:15;;;;;;;4.57;2.90;;;;;;;;;;5016266;28;20213;-63
2021/10/26 15:01:44;;;;;;;3.75;3.17;;;;;;;;;;5016282;28;20207;-62